createdAt,value
2022-11-28T00:01:36.807Z,2.15
2022-11-28T00:04:06.201Z,2.12
2022-11-28T00:06:38.033Z,2.12
2022-11-28T00:09:08.688Z,2.04
2022-11-28T00:11:36.882Z,2.03
2022-11-28T00:14:05.040Z,1.11
2022-11-28T00:16:33.280Z,1.95
2022-11-28T00:19:03.087Z,1.89
2022-11-28T00:21:31.539Z,1.84
2022-11-28T00:24:00.707Z,1.80
2022-11-28T00:26:32.234Z,1.47
2022-11-28T00:29:01.957Z,1.74
2022-11-28T00:31:31.439Z,1.72
2022-11-28T00:34:01.793Z,1.62
2022-11-28T00:36:31.465Z,0.66
2022-11-28T00:38:59.627Z,1.57
2022-11-28T00:41:31.140Z,1.41
2022-11-28T00:43:59.491Z,1.51
2022-11-28T00:46:27.944Z,1.47
2022-11-28T00:48:56.304Z,1.55
2022-11-28T00:51:26.150Z,1.35
2022-11-28T00:53:56.528Z,0.98
2022-11-28T00:56:26.403Z,1.37
2022-11-28T00:58:56.208Z,1.40
2022-11-28T01:01:27.150Z,1.35
2022-11-28T01:03:57.019Z,1.28
2022-11-28T01:06:27.384Z,0.84
2022-11-28T01:08:55.530Z,1.13
2022-11-28T01:11:24.427Z,1.16
2022-11-28T01:13:54.828Z,0.60
2022-11-28T01:16:25.265Z,1.19
2022-11-28T01:18:53.648Z,1.27
2022-11-28T01:21:22.406Z,1.13
2022-11-28T01:23:50.984Z,1.04
2022-11-28T01:26:20.854Z,0.81
2022-11-28T01:28:49.745Z,0.95
2022-11-28T01:31:20.375Z,0.90
2022-11-28T01:33:50.464Z,0.92
2022-11-28T01:36:19.571Z,0.70
2022-11-28T01:38:48.144Z,0.78
2022-11-28T01:41:18.293Z,0.89
2022-11-28T01:44:00.975Z,0.89
2022-11-28T01:46:29.523Z,0.64
2022-11-28T01:49:03.164Z,0.85
2022-11-28T01:51:31.688Z,0.88
2022-11-28T01:54:01.004Z,0.91
2022-11-28T01:56:33.248Z,0.91
2022-11-28T01:59:04.642Z,0.90
2022-11-28T02:01:33.109Z,0.78
2022-11-28T02:04:04.659Z,-0.42
2022-11-28T02:06:34.488Z,0.61
2022-11-28T02:09:02.813Z,0.78
2022-11-28T02:11:47.893Z,0.74
2022-11-28T02:14:26.945Z,-0.17
2022-11-28T02:17:04.308Z,0.70
2022-11-28T02:20:10.816Z,0.79
2022-11-28T02:22:46.398Z,0.84
2022-11-28T02:25:32.810Z,0.15
2022-11-28T02:28:23.503Z,0.55
2022-11-28T02:31:01.840Z,0.43
2022-11-28T02:33:35.288Z,0.25
2022-11-28T02:36:12.652Z,0.36
2022-11-28T02:38:53.578Z,-0.88
2022-11-28T02:41:31.733Z,0.32
2022-11-28T02:44:10.114Z,0.34
2022-11-28T02:46:49.311Z,0.26
2022-11-28T02:49:24.052Z,0.05
2022-11-28T02:51:57.948Z,0.26
2022-11-28T02:54:27.732Z,0.39
2022-11-28T02:56:56.479Z,0.45
2022-11-28T02:59:34.562Z,0.50
2022-11-28T03:02:03.419Z,0.59
2022-11-28T03:04:42.480Z,0.61
2022-11-28T03:07:20.699Z,0.39
2022-11-28T03:09:57.423Z,0.65
2022-11-28T03:12:37.706Z,0.70
2022-11-28T03:15:08.031Z,0.57
2022-11-28T03:17:44.637Z,0.58
2022-11-28T03:20:24.574Z,0.67
2022-11-28T03:23:06.733Z,0.65
2022-11-28T03:25:42.443Z,-0.02
2022-11-28T03:28:19.610Z,0.30
2022-11-28T03:30:52.070Z,0.76
2022-11-28T03:33:22.396Z,0.53
2022-11-28T03:35:57.908Z,0.84
2022-11-28T03:38:30.042Z,0.87
2022-11-28T03:41:04.418Z,0.75
2022-11-28T03:43:37.794Z,0.76
2022-11-28T03:46:10.309Z,0.70
2022-11-28T03:48:42.283Z,0.72
2022-11-28T03:51:17.329Z,0.73
2022-11-28T03:53:52.328Z,0.15
2022-11-28T03:56:26.382Z,0.81
2022-11-28T03:58:59.383Z,0.80
2022-11-28T04:01:33.574Z,0.60
2022-11-28T04:04:15.719Z,0.84
2022-11-28T04:06:55.433Z,0.13
2022-11-28T04:09:36.873Z,0.83
2022-11-28T04:12:11.095Z,0.86
2022-11-28T04:14:44.075Z,0.22
2022-11-28T04:17:18.235Z,0.86
2022-11-28T04:19:51.158Z,0.87
2022-11-28T04:22:25.692Z,0.93
2022-11-28T04:24:58.730Z,0.95
2022-11-28T04:27:32.567Z,0.93
2022-11-28T04:30:02.688Z,0.99
2022-11-28T04:32:32.880Z,0.95
2022-11-28T04:35:05.163Z,0.91
2022-11-28T04:37:38.295Z,0.83
2022-11-28T04:40:10.356Z,0.97
2022-11-28T04:42:42.773Z,0.90
2022-11-28T04:45:15.443Z,0.49
2022-11-28T04:47:44.613Z,0.59
2022-11-28T04:50:13.736Z,0.56
2022-11-28T04:52:50.789Z,0.52
2022-11-28T04:55:28.304Z,0.57
2022-11-28T04:58:04.663Z,0.69
2022-11-28T05:00:35.284Z,0.81
2022-11-28T05:03:04.898Z,0.72
2022-11-28T05:05:33.540Z,0.71
2022-11-28T05:08:03.411Z,0.60
2022-11-28T05:10:31.679Z,0.69
2022-11-28T05:12:59.824Z,0.70
2022-11-28T05:15:28.013Z,0.08
2022-11-28T05:17:56.119Z,0.65
2022-11-28T05:20:24.581Z,0.71
2022-11-28T05:22:52.729Z,0.87
2022-11-28T05:25:22.461Z,0.94
2022-11-28T05:27:50.813Z,0.97
2022-11-28T05:30:19.065Z,0.93
2022-11-28T05:32:47.181Z,0.08
2022-11-28T05:35:15.394Z,0.76
2022-11-28T05:37:43.529Z,0.38
2022-11-28T05:40:12.385Z,0.88
2022-11-28T05:42:41.988Z,0.89
2022-11-28T05:45:10.942Z,0.75
2022-11-28T05:47:39.401Z,0.96
2022-11-28T05:50:09.243Z,0.97
2022-11-28T05:52:37.407Z,-1.17
2022-11-28T05:55:06.226Z,1.06
2022-11-28T05:57:34.473Z,0.76
2022-11-28T06:00:05.018Z,0.72
2022-11-28T06:02:33.144Z,0.90
2022-11-28T06:05:16.157Z,0.92
2022-11-28T06:07:49.550Z,0.94
2022-11-28T06:10:17.781Z,0.81
2022-11-28T06:12:45.956Z,0.80
2022-11-28T06:15:15.802Z,0.37
2022-11-28T06:17:44.013Z,0.99
2022-11-28T06:20:12.505Z,0.75
2022-11-28T06:22:40.846Z,0.47
2022-11-28T06:25:09.075Z,0.93
2022-11-28T06:27:37.250Z,0.95
2022-11-28T06:30:06.535Z,0.78
2022-11-28T06:32:36.171Z,-0.24
2022-11-28T06:35:04.416Z,0.78
2022-11-28T06:37:32.615Z,0.93
2022-11-28T06:40:00.726Z,0.36
2022-11-28T06:42:28.960Z,0.83
2022-11-28T06:44:57.087Z,0.82
2022-11-28T06:47:25.266Z,0.75
2022-11-28T06:49:54.901Z,0.90
2022-11-28T06:52:23.091Z,1.00
2022-11-28T06:54:51.463Z,0.95
2022-11-28T06:57:19.693Z,0.69
2022-11-28T06:59:49.390Z,1.04
2022-11-28T07:02:17.765Z,1.12
2022-11-28T07:04:46.201Z,1.11
2022-11-28T07:07:16.767Z,1.11
2022-11-28T07:09:45.508Z,1.13
2022-11-28T07:12:13.780Z,0.83
2022-11-28T07:14:42.276Z,1.17
2022-11-28T07:17:10.577Z,1.04
2022-11-28T07:19:39.130Z,1.28
2022-11-28T07:22:07.315Z,1.17
2022-11-28T07:24:36.883Z,1.06
2022-11-28T07:27:05.122Z,1.16
2022-11-28T07:29:36.620Z,0.85
2022-11-28T07:32:05.991Z,0.03
2022-11-28T07:34:34.288Z,0.81
2022-11-28T07:37:02.574Z,0.90
2022-11-28T07:39:30.890Z,0.97
2022-11-28T07:42:00.494Z,1.04
2022-11-28T07:44:28.768Z,1.03
2022-11-28T07:46:56.924Z,1.28
2022-11-28T07:49:25.114Z,1.31
2022-11-28T07:51:53.276Z,1.33
2022-11-28T07:54:21.435Z,1.02
2022-11-28T07:57:12.114Z,1.20
2022-11-28T07:59:39.205Z,1.26
2022-11-28T08:02:07.454Z,1.22
2022-11-28T08:04:35.756Z,1.18
2022-11-28T08:07:03.977Z,1.11
2022-11-28T08:09:32.943Z,1.06
2022-11-28T08:12:01.126Z,1.10
2022-11-28T08:14:29.264Z,1.11
2022-11-28T08:16:58.913Z,1.14
2022-11-28T08:19:30.567Z,1.28
2022-11-28T08:22:00.266Z,1.44
2022-11-28T08:24:28.502Z,1.54
2022-11-28T08:26:57.179Z,1.68
2022-11-28T08:29:25.358Z,1.81
2022-11-28T08:31:53.490Z,1.81
2022-11-28T08:34:23.089Z,1.87
2022-11-28T08:36:52.755Z,1.91
2022-11-28T08:39:25.040Z,1.98
2022-11-28T08:41:54.399Z,1.82
2022-11-28T08:44:22.976Z,1.50
2022-11-28T08:46:51.201Z,1.99
2022-11-28T08:49:19.533Z,1.98
2022-11-28T08:51:49.243Z,1.88
2022-11-28T08:54:17.340Z,1.92
2022-11-28T08:56:46.733Z,1.96
2022-11-28T08:59:14.995Z,1.95
2022-11-28T09:01:43.238Z,1.94
2022-11-28T09:04:11.617Z,1.90
2022-11-28T09:06:40.522Z,1.98
2022-11-28T09:09:10.416Z,2.04
2022-11-28T09:11:39.061Z,2.08
2022-11-28T09:14:07.762Z,2.14
2022-11-28T09:16:35.900Z,2.10
2022-11-28T09:19:04.370Z,2.02
2022-11-28T09:21:32.492Z,2.16
2022-11-28T09:24:00.962Z,2.17
2022-11-28T09:26:31.183Z,2.01
2022-11-28T09:28:59.489Z,2.17
2022-11-28T09:31:28.253Z,1.77
2022-11-28T09:33:56.603Z,2.16
2022-11-28T09:36:25.736Z,2.17
2022-11-28T09:38:53.963Z,2.27
2022-11-28T09:41:40.745Z,2.37
2022-11-28T09:44:17.418Z,2.33
2022-11-28T09:46:47.312Z,2.27
2022-11-28T09:49:25.244Z,1.84
2022-11-28T09:51:57.921Z,2.01
2022-11-28T09:54:36.215Z,2.54
2022-11-28T09:57:12.980Z,2.00
2022-11-28T09:59:42.369Z,2.82
2022-11-28T10:02:23.235Z,2.70
2022-11-28T10:05:00.789Z,2.91
2022-11-28T10:07:34.396Z,2.74
2022-11-28T10:10:11.710Z,2.89
2022-11-28T10:12:51.637Z,2.83
2022-11-28T10:15:28.184Z,2.79
2022-11-28T10:18:11.529Z,2.58
2022-11-28T10:20:42.661Z,2.56
2022-11-28T10:23:17.681Z,2.54
2022-11-28T10:25:51.064Z,1.61
2022-11-28T10:28:25.300Z,2.46
2022-11-28T10:30:59.269Z,2.04
2022-11-28T10:33:32.996Z,1.74
2022-11-28T10:36:03.365Z,2.67
2022-11-28T10:38:37.018Z,2.80
2022-11-28T10:41:12.577Z,2.93
2022-11-28T10:43:48.487Z,2.86
2022-11-28T10:46:44.562Z,2.89
2022-11-28T10:49:27.902Z,3.16
2022-11-28T10:52:04.693Z,3.45
2022-11-28T10:54:52.795Z,3.66
2022-11-28T10:57:25.617Z,3.07
2022-11-28T11:00:04.170Z,3.80
2022-11-28T11:02:39.439Z,4.55
2022-11-28T11:05:10.111Z,3.79
2022-11-28T11:07:38.291Z,4.13
2022-11-28T11:10:17.065Z,4.10
2022-11-28T11:12:45.735Z,4.08
2022-11-28T11:15:25.882Z,4.43
2022-11-28T11:17:54.100Z,4.62
2022-11-28T11:20:33.635Z,4.95
2022-11-28T11:23:04.609Z,5.07
2022-11-28T11:25:33.818Z,5.19
2022-11-28T11:28:05.609Z,5.49
2022-11-28T11:30:38.737Z,5.80
2022-11-28T11:33:13.444Z,5.90
2022-11-28T11:35:46.298Z,5.77
2022-11-28T11:38:27.730Z,5.68
2022-11-28T11:40:55.993Z,5.62
2022-11-28T11:43:29.740Z,5.49
2022-11-28T11:46:10.451Z,5.43
2022-11-28T11:48:41.186Z,5.61
2022-11-28T11:51:21.891Z,5.79
2022-11-28T11:53:50.527Z,5.90
2022-11-28T11:56:19.342Z,5.89
2022-11-28T11:58:51.829Z,5.94
2022-11-28T12:01:22.880Z,6.04
2022-11-28T12:03:57.014Z,6.03
2022-11-28T12:06:31.140Z,5.86
2022-11-28T12:09:09.066Z,5.98
2022-11-28T12:11:46.770Z,6.03
2022-11-28T12:14:27.834Z,6.17
2022-11-28T12:17:40.395Z,5.86
2022-11-28T12:20:14.800Z,5.58
2022-11-28T12:22:55.718Z,5.47
2022-11-28T12:25:31.347Z,5.28
2022-11-28T12:28:07.264Z,5.50
2022-11-28T12:30:49.531Z,5.47
2022-11-28T12:33:40.946Z,5.85
2022-11-28T12:36:16.126Z,5.84
2022-11-28T12:39:00.846Z,5.73
2022-11-28T12:41:57.388Z,5.68
2022-11-28T12:44:33.530Z,5.60
2022-11-28T12:47:10.457Z,5.31
2022-11-28T12:49:52.888Z,5.40
2022-11-28T12:52:33.046Z,5.24
2022-11-28T12:55:19.572Z,4.98
2022-11-28T12:57:54.762Z,4.72
2022-11-28T13:00:26.029Z,4.45
2022-11-28T13:03:07.210Z,4.16
2022-11-28T13:05:48.672Z,4.11
2022-11-28T13:08:43.322Z,3.98
2022-11-28T13:11:28.280Z,4.03
2022-11-28T13:14:04.987Z,4.05
2022-11-28T13:16:43.241Z,4.08
2022-11-28T13:19:29.372Z,4.05
2022-11-28T13:22:09.205Z,4.02
2022-11-28T13:24:44.881Z,3.99
2022-11-28T13:27:22.882Z,4.09
2022-11-28T13:30:04.023Z,4.06
2022-11-28T13:32:40.315Z,4.06
2022-11-28T13:35:14.505Z,3.87
2022-11-28T13:40:44.012Z,4.19
2022-11-28T13:43:18.888Z,4.06
2022-11-28T13:45:48.523Z,4.31
2022-11-28T13:49:15.453Z,4.43
2022-11-28T13:51:47.963Z,4.50
2022-11-28T13:54:44.086Z,4.60
2022-11-28T13:57:31.617Z,4.64
2022-11-28T14:00:23.047Z,4.37
2022-11-28T14:02:54.337Z,4.36
2022-11-28T14:05:33.028Z,4.62
2022-11-28T14:08:02.209Z,4.21
2022-11-28T14:10:54.438Z,3.69
2022-11-28T14:13:55.427Z,4.27
2022-11-28T14:16:34.332Z,4.29
2022-11-28T14:19:16.949Z,4.19
2022-11-28T14:21:59.351Z,3.92
2022-11-28T14:24:43.094Z,4.13
2022-11-28T14:27:22.175Z,4.11
2022-11-28T14:29:53.360Z,3.92
2022-11-28T14:32:34.614Z,3.79
2022-11-28T14:35:03.980Z,3.67
2022-11-28T14:37:50.353Z,2.94
2022-11-28T14:41:09.236Z,3.72
2022-11-28T14:43:40.439Z,3.69
2022-11-28T14:46:33.463Z,3.69
2022-11-28T14:49:22.650Z,3.76
2022-11-28T14:52:30.998Z,3.68
2022-11-28T14:54:56.016Z,3.71
2022-11-28T14:57:27.755Z,3.34
2022-11-28T14:59:59.758Z,3.67
2022-11-28T15:02:45.666Z,3.49
2022-11-28T15:05:40.176Z,3.67
2022-11-28T15:08:45.676Z,3.62
2022-11-28T15:11:33.363Z,3.62
2022-11-28T15:14:11.741Z,3.57
2022-11-28T15:16:49.808Z,3.55
2022-11-28T15:19:24.930Z,3.55
2022-11-28T15:21:54.845Z,3.60
2022-11-28T15:24:31.015Z,3.58
2022-11-28T15:27:17.540Z,3.10
2022-11-28T15:29:54.675Z,3.56
2022-11-28T15:32:24.929Z,3.56
2022-11-28T15:34:56.203Z,3.61
2022-11-28T15:37:29.453Z,3.25
2022-11-28T15:39:58.050Z,3.30
2022-11-28T15:42:30.751Z,3.42
2022-11-28T15:45:00.870Z,3.43
2022-11-28T15:47:30.642Z,3.38
2022-11-28T15:50:05.605Z,3.37
2022-11-28T15:52:33.780Z,3.53
2022-11-28T15:55:02.011Z,3.65
2022-11-28T15:57:32.691Z,3.64
2022-11-28T16:00:03.127Z,3.72
2022-11-28T16:02:35.993Z,3.67
2022-11-28T16:05:08.949Z,2.65
2022-11-28T16:07:42.444Z,3.69
2022-11-28T16:10:22.672Z,3.65
2022-11-28T16:12:51.962Z,3.01
2022-11-28T16:15:22.475Z,3.62
2022-11-28T16:17:54.752Z,3.24
2022-11-28T16:20:25.858Z,3.51
2022-11-28T16:23:02.643Z,3.55
2022-11-28T16:25:32.681Z,3.44
2022-11-28T16:28:00.891Z,3.50
2022-11-28T16:30:34.808Z,3.14
2022-11-28T16:33:25.915Z,3.47
2022-11-28T16:35:54.075Z,3.47
2022-11-28T16:38:24.892Z,3.51
2022-11-28T16:41:00.348Z,3.38
2022-11-28T16:43:37.047Z,3.40
2022-11-28T16:46:08.017Z,3.28
2022-11-28T16:48:39.764Z,3.54
2022-11-28T16:51:39.419Z,3.57
2022-11-28T16:54:32.300Z,3.53
2022-11-28T16:57:12.116Z,3.65
2022-11-28T16:59:40.595Z,3.66
2022-11-28T17:02:16.146Z,3.68
2022-11-28T17:04:46.276Z,3.66
2022-11-28T17:07:16.747Z,3.51
2022-11-28T17:09:46.894Z,3.74
2022-11-28T17:12:21.701Z,3.72
2022-11-28T17:14:50.019Z,3.70
2022-11-28T17:17:19.997Z,3.55
2022-11-28T17:19:49.581Z,3.66
2022-11-28T17:22:19.793Z,3.47
2022-11-28T17:24:49.180Z,3.63
2022-11-28T17:27:17.738Z,3.60
2022-11-28T17:29:46.178Z,3.50
2022-11-28T17:32:15.529Z,3.52
2022-11-28T17:34:44.051Z,3.47
2022-11-28T17:37:13.827Z,3.56
2022-11-28T17:40:02.776Z,3.53
2022-11-28T17:42:31.035Z,3.51
2022-11-28T17:44:59.179Z,3.70
2022-11-28T17:47:27.308Z,3.77
2022-11-28T17:49:55.690Z,3.77
2022-11-28T17:52:30.442Z,3.81
2022-11-28T17:55:06.987Z,3.66
2022-11-28T17:57:36.138Z,3.50
2022-11-28T18:00:06.705Z,3.69
2022-11-28T18:02:34.987Z,3.57
2022-11-28T18:05:03.305Z,3.59
2022-11-28T18:07:33.341Z,3.64
2022-11-28T18:10:01.628Z,3.63
2022-11-28T18:12:29.844Z,3.52
2022-11-28T18:14:59.653Z,3.60
2022-11-28T18:17:27.958Z,3.60
2022-11-28T18:19:57.711Z,3.63
2022-11-28T18:22:26.790Z,3.13
2022-11-28T18:24:56.360Z,3.60
2022-11-28T18:27:24.604Z,3.64
2022-11-28T18:29:52.923Z,3.61
2022-11-28T18:32:21.582Z,3.44
2022-11-28T18:34:49.971Z,3.75
2022-11-28T18:37:18.146Z,3.85
2022-11-28T18:39:46.653Z,3.77
2022-11-28T18:42:17.071Z,3.64
2022-11-28T18:44:45.280Z,3.40
2022-11-28T18:47:13.705Z,3.30
2022-11-28T18:49:42.408Z,3.27
2022-11-28T18:52:11.084Z,3.21
2022-11-28T18:54:39.647Z,3.17
2022-11-28T18:57:08.336Z,3.16
2022-11-28T18:59:38.043Z,3.13
2022-11-28T19:02:06.312Z,3.00
2022-11-28T19:04:34.504Z,3.12
2022-11-28T19:07:04.136Z,3.06
2022-11-28T19:09:32.890Z,2.73
2022-11-28T19:12:01.073Z,3.03
2022-11-28T19:14:29.574Z,3.03
2022-11-28T19:16:59.426Z,2.95
2022-11-28T19:19:27.804Z,2.78
2022-11-28T19:21:56.141Z,3.01
2022-11-28T19:24:24.422Z,2.91
2022-11-28T19:26:52.673Z,2.39
2022-11-28T19:29:20.870Z,2.98
2022-11-28T19:31:49.246Z,2.93
2022-11-28T19:34:20.406Z,2.95
2022-11-28T19:36:51.065Z,2.92
2022-11-28T19:39:22.242Z,2.91
2022-11-28T19:41:51.412Z,2.75
2022-11-28T19:44:21.033Z,2.86
2022-11-28T19:46:50.424Z,2.83
2022-11-28T19:49:22.489Z,2.78
2022-11-28T19:51:50.897Z,2.74
2022-11-28T19:54:20.768Z,2.68
2022-11-28T19:56:49.188Z,2.56
2022-11-28T19:59:18.266Z,2.58
2022-11-28T20:01:49.153Z,2.25
2022-11-28T20:04:17.611Z,2.78
2022-11-28T20:06:47.345Z,2.81
2022-11-28T20:09:15.573Z,2.37
2022-11-28T20:11:45.475Z,2.88
2022-11-28T20:14:15.620Z,2.63
2022-11-28T20:16:44.578Z,1.97
2022-11-28T20:19:15.213Z,2.35
2022-11-28T20:21:43.522Z,2.80
2022-11-28T20:24:13.267Z,2.44
2022-11-28T20:26:44.101Z,2.66
2022-11-28T20:29:15.767Z,2.64
2022-11-28T20:31:46.017Z,2.75
2022-11-28T20:34:15.630Z,2.60
2022-11-28T20:36:44.016Z,2.72
2022-11-28T20:39:14.491Z,1.77
2022-11-28T20:41:42.962Z,2.71
2022-11-28T20:44:14.740Z,2.74
2022-11-28T20:46:44.144Z,2.75
2022-11-28T20:49:12.450Z,2.65
2022-11-28T20:51:40.999Z,2.65
2022-11-28T20:54:09.665Z,2.73
2022-11-28T20:59:28.752Z,2.72
2022-11-28T21:01:56.972Z,2.74
2022-11-28T21:04:25.154Z,2.77
2022-11-28T21:06:53.405Z,2.73
2022-11-28T21:09:21.539Z,2.68
2022-11-28T21:11:57.525Z,2.77
2022-11-28T21:14:26.741Z,2.38
2022-11-28T21:16:55.824Z,2.75
2022-11-28T21:19:24.151Z,2.67
2022-11-28T21:21:52.415Z,2.65
2022-11-28T21:24:20.639Z,2.61
2022-11-28T21:26:54.079Z,2.59
2022-11-28T21:29:24.233Z,1.69
2022-11-28T21:31:53.051Z,2.60
2022-11-28T21:34:22.474Z,1.95
2022-11-28T21:36:50.803Z,2.52
2022-11-28T21:39:20.959Z,2.26
2022-11-28T21:41:51.384Z,2.53
2022-11-28T21:44:19.651Z,2.54
2022-11-28T21:46:47.854Z,2.52
2022-11-28T21:49:16.240Z,2.50
2022-11-28T21:51:44.425Z,2.48
2022-11-28T21:54:12.921Z,2.48
2022-11-28T21:56:41.191Z,2.52
2022-11-28T21:59:10.999Z,2.43
2022-11-28T22:01:39.272Z,2.01
2022-11-28T22:04:07.994Z,2.22
2022-11-28T22:06:36.206Z,2.51
2022-11-28T22:09:09.320Z,2.55
2022-11-28T22:11:38.827Z,2.39
2022-11-28T22:14:08.862Z,2.56
2022-11-28T22:16:38.825Z,2.54
2022-11-28T22:19:07.088Z,2.59
2022-11-28T22:21:54.065Z,2.62
2022-11-28T22:24:23.679Z,2.61
2022-11-28T22:26:51.952Z,2.67
2022-11-28T22:29:20.175Z,2.70
2022-11-28T22:31:50.222Z,2.26
2022-11-28T22:35:24.428Z,2.61
2022-11-28T22:37:55.218Z,2.66
2022-11-28T22:40:23.363Z,2.70
2022-11-28T22:42:55.612Z,2.33
2022-11-28T22:45:23.906Z,2.20
2022-11-28T22:47:53.431Z,2.38
2022-11-28T22:50:21.657Z,2.49
2022-11-28T22:52:49.862Z,2.72
2022-11-28T22:55:18.056Z,2.76
2022-11-28T22:57:46.204Z,2.75
2022-11-28T23:00:15.650Z,2.54
2022-11-28T23:02:43.924Z,2.70
2022-11-28T23:05:13.730Z,2.41
2022-11-28T23:07:41.909Z,2.70
2022-11-28T23:10:10.519Z,2.54
2022-11-28T23:12:38.673Z,2.90
2022-11-28T23:15:08.234Z,2.91
2022-11-28T23:17:36.556Z,2.87
2022-11-28T23:20:05.073Z,2.83
2022-11-28T23:22:35.713Z,2.90
2022-11-28T23:25:03.867Z,2.91
2022-11-28T23:27:32.040Z,2.93
2022-11-28T23:30:00.191Z,3.00
2022-11-28T23:32:28.935Z,2.85
2022-11-28T23:34:57.134Z,2.96
2022-11-28T23:37:25.212Z,3.05
2022-11-28T23:39:54.841Z,3.01
2022-11-28T23:42:22.996Z,2.54
2022-11-28T23:44:51.157Z,2.96
2022-11-28T23:47:19.310Z,3.10
2022-11-28T23:49:47.417Z,3.09
2022-11-28T23:52:15.637Z,3.08
2022-11-28T23:54:43.952Z,3.04
2022-11-28T23:57:13.657Z,3.02
2022-11-28T23:59:41.787Z,2.68
